Destinations Menara Airport

Menara Airport (GMMX / RAK)

Flights to Menara Airport

Flight number From ETE Dispatch
SPY-2230 EGFF Cardiff International Airport 03:45

Flights from Menara Airport

Flight number To ETE Dispatch
SPY-2231 EGFF Cardiff International Airport 03:45
About

Menara Airport facts

Menara Airport is located in Marrakech at an elevation of 470.9 meters or 1545 feet.

Currently, Speedy Airlines serves 2 flights to and from Menara Airport.

Detailed airport info

Route map

Weather

Current weather

METAR

METAR

Metar data retrieved Sunday, 21 July 2024 at 20:25 UTC

GMMX 212000Z 02009KT 350V060 8000 FEW026 SCT200 33/15 Q1013 NOSIG
Wind Temperature
9 kt 33c